Dwarf, Kentucky
Current Conditions -  °F | °C
As of 4:53 PM on Friday 28 Nov 2014 (Local Time) from KJKL Reporting Station
Overcast Overcast  
Wind Chill: 34°   Ceiling: 12000
Heat Index: 34°   Visibility: 10mi
Dew Point: 16°   Wind: 0mph
Humidity: 48%   Direction: NA
Pressure: 30.24"   Gusts: NA
Location:  37.33°N, 83.13°W
Report Text: KJKL 282153Z AUTO 00000KT 10SM OVC120 01/M09 A3024 RMK AO2 SLP250 T00111089
Loading
Personal Weather Stations






























Interactive Weather Map New forecast layout! Learn more

10-Day Weather Forecast

Advertisements
Track Severe Weather on mobile